sensor_id;sensor_type;location;lat;lon;timestamp;P1;durP1;ratioP1;P2;durP2;ratioP2
51459;SDS011;37534;39.772;2.718;2022-10-17T00:01:07;4.35;;;3.30;;
51459;SDS011;37534;39.772;2.718;2022-10-17T00:03:34;7.07;;;2.90;;
51459;SDS011;37534;39.772;2.718;2022-10-17T00:06:04;7.80;;;3.50;;
51459;SDS011;37534;39.772;2.718;2022-10-17T00:08:34;12.57;;;4.20;;
51459;SDS011;37534;39.772;2.718;2022-10-17T00:11:05;4.15;;;3.05;;
51459;SDS011;37534;39.772;2.718;2022-10-17T00:13:36;7.72;;;3.95;;
51459;SDS011;37534;39.772;2.718;2022-10-17T00:16:01;5.65;;;3.25;;
51459;SDS011;37534;39.772;2.718;2022-10-17T00:18:27;10.18;;;4.53;;
51459;SDS011;37534;39.772;2.718;2022-10-17T00:20:52;5.15;;;3.45;;
51459;SDS011;37534;39.772;2.718;2022-10-17T00:23:18;5.97;;;4.68;;
51459;SDS011;37534;39.772;2.718;2022-10-17T00:25:44;9.63;;;5.38;;
51459;SDS011;37534;39.772;2.718;2022-10-17T00:28:10;11.90;;;5.55;;
51459;SDS011;37534;39.772;2.718;2022-10-17T00:30:37;12.60;;;4.50;;
51459;SDS011;37534;39.772;2.718;2022-10-17T00:33:03;12.55;;;4.38;;
51459;SDS011;37534;39.772;2.718;2022-10-17T00:35:29;7.15;;;4.65;;
51459;SDS011;37534;39.772;2.718;2022-10-17T00:37:55;10.57;;;5.53;;
51459;SDS011;37534;39.772;2.718;2022-10-17T00:40:20;7.85;;;5.18;;
51459;SDS011;37534;39.772;2.718;2022-10-17T00:42:46;9.40;;;5.78;;
51459;SDS011;37534;39.772;2.718;2022-10-17T00:45:22;7.82;;;4.03;;
51459;SDS011;37534;39.772;2.718;2022-10-17T00:48:04;14.63;;;3.00;;
51459;SDS011;37534;39.772;2.718;2022-10-17T00:50:33;7.90;;;2.90;;
51459;SDS011;37534;39.772;2.718;2022-10-17T00:53:02;9.13;;;3.67;;
51459;SDS011;37534;39.772;2.718;2022-10-17T00:55:31;6.25;;;3.30;;
51459;SDS011;37534;39.772;2.718;2022-10-17T00:57:59;5.95;;;2.92;;
51459;SDS011;37534;39.772;2.718;2022-10-17T01:00:27;5.75;;;3.10;;
51459;SDS011;37534;39.772;2.718;2022-10-17T01:02:53;4.35;;;2.72;;
51459;SDS011;37534;39.772;2.718;2022-10-17T01:05:19;4.22;;;3.05;;
51459;SDS011;37534;39.772;2.718;2022-10-17T01:07:45;6.43;;;3.13;;
51459;SDS011;37534;39.772;2.718;2022-10-17T01:10:13;7.35;;;3.65;;
51459;SDS011;37534;39.772;2.718;2022-10-17T01:21:23;6.68;;;2.80;;
51459;SDS011;37534;39.772;2.718;2022-10-17T01:29:46;7.30;;;3.90;;
51459;SDS011;37534;39.772;2.718;2022-10-17T01:45:36;5.30;;;3.67;;
51459;SDS011;37534;39.772;2.718;2022-10-17T01:48:08;5.60;;;4.15;;
51459;SDS011;37534;39.772;2.718;2022-10-17T01:50:44;5.65;;;3.63;;
51459;SDS011;37534;39.772;2.718;2022-10-17T01:53:20;5.07;;;3.30;;
51459;SDS011;37534;39.772;2.718;2022-10-17T01:55:53;8.00;;;4.20;;
51459;SDS011;37534;39.772;2.718;2022-10-17T01:58:30;5.32;;;3.67;;
51459;SDS011;37534;39.772;2.718;2022-10-17T02:01:00;9.30;;;4.38;;
51459;SDS011;37534;39.772;2.718;2022-10-17T02:03:29;4.32;;;3.40;;
51459;SDS011;37534;39.772;2.718;2022-10-17T02:05:58;7.57;;;3.72;;
51459;SDS011;37534;39.772;2.718;2022-10-17T02:08:25;3.25;;;2.88;;
51459;SDS011;37534;39.772;2.718;2022-10-17T02:11:02;4.10;;;3.08;;
51459;SDS011;37534;39.772;2.718;2022-10-17T02:16:22;7.43;;;3.40;;
51459;SDS011;37534;39.772;2.718;2022-10-17T02:19:17;5.35;;;3.45;;
51459;SDS011;37534;39.772;2.718;2022-10-17T02:29:54;3.15;;;2.85;;
51459;SDS011;37534;39.772;2.718;2022-10-17T02:35:15;14.52;;;4.07;;
51459;SDS011;37534;39.772;2.718;2022-10-17T02:37:43;6.35;;;3.10;;
51459;SDS011;37534;39.772;2.718;2022-10-17T02:40:11;6.65;;;3.33;;
51459;SDS011;37534;39.772;2.718;2022-10-17T02:42:39;9.65;;;3.53;;
51459;SDS011;37534;39.772;2.718;2022-10-17T02:45:08;7.55;;;3.45;;
51459;SDS011;37534;39.772;2.718;2022-10-17T02:47:35;4.80;;;3.13;;
51459;SDS011;37534;39.772;2.718;2022-10-17T02:50:07;6.68;;;3.28;;
51459;SDS011;37534;39.772;2.718;2022-10-17T02:52:35;9.02;;;3.88;;
51459;SDS011;37534;39.772;2.718;2022-10-17T02:55:16;3.88;;;3.10;;
51459;SDS011;37534;39.772;2.718;2022-10-17T02:57:45;7.25;;;3.10;;
51459;SDS011;37534;39.772;2.718;2022-10-17T03:02:44;4.22;;;3.00;;
51459;SDS011;37534;39.772;2.718;2022-10-17T03:05:14;6.20;;;3.15;;
51459;SDS011;37534;39.772;2.718;2022-10-17T03:07:42;18.75;;;4.32;;
51459;SDS011;37534;39.772;2.718;2022-10-17T03:10:07;5.15;;;3.92;;
51459;SDS011;37534;39.772;2.718;2022-10-17T03:12:33;7.78;;;3.55;;
51459;SDS011;37534;39.772;2.718;2022-10-17T03:14:59;10.98;;;4.60;;
51459;SDS011;37534;39.772;2.718;2022-10-17T03:17:24;4.35;;;2.85;;
51459;SDS011;37534;39.772;2.718;2022-10-17T03:19:50;5.15;;;3.88;;
51459;SDS011;37534;39.772;2.718;2022-10-17T03:22:15;3.67;;;3.05;;
51459;SDS011;37534;39.772;2.718;2022-10-17T03:24:41;6.95;;;4.18;;
51459;SDS011;37534;39.772;2.718;2022-10-17T03:27:06;5.93;;;4.10;;
51459;SDS011;37534;39.772;2.718;2022-10-17T03:29:31;8.25;;;4.95;;
51459;SDS011;37534;39.772;2.718;2022-10-17T03:31:57;7.82;;;3.70;;
51459;SDS011;37534;39.772;2.718;2022-10-17T03:34:23;6.15;;;3.88;;
51459;SDS011;37534;39.772;2.718;2022-10-17T03:36:48;21.02;;;3.97;;
51459;SDS011;37534;39.772;2.718;2022-10-17T03:39:14;8.15;;;3.97;;
51459;SDS011;37534;39.772;2.718;2022-10-17T03:41:39;10.75;;;3.30;;
51459;SDS011;37534;39.772;2.718;2022-10-17T03:44:05;5.03;;;3.33;;
51459;SDS011;37534;39.772;2.718;2022-10-17T03:46:30;4.35;;;3.47;;
51459;SDS011;37534;39.772;2.718;2022-10-17T03:48:56;6.85;;;3.30;;
51459;SDS011;37534;39.772;2.718;2022-10-17T03:51:21;9.20;;;4.05;;
51459;SDS011;37534;39.772;2.718;2022-10-17T03:53:47;4.22;;;3.47;;
51459;SDS011;37534;39.772;2.718;2022-10-17T03:58:42;8.27;;;4.18;;
51459;SDS011;37534;39.772;2.718;2022-10-17T04:01:09;5.78;;;3.03;;
51459;SDS011;37534;39.772;2.718;2022-10-17T04:03:36;6.13;;;3.13;;
51459;SDS011;37534;39.772;2.718;2022-10-17T04:06:02;7.65;;;3.15;;
51459;SDS011;37534;39.772;2.718;2022-10-17T04:08:29;4.53;;;3.25;;
51459;SDS011;37534;39.772;2.718;2022-10-17T04:11:01;5.75;;;3.75;;
51459;SDS011;37534;39.772;2.718;2022-10-17T04:13:29;7.43;;;3.80;;
51459;SDS011;37534;39.772;2.718;2022-10-17T04:18:24;7.05;;;3.15;;
51459;SDS011;37534;39.772;2.718;2022-10-17T04:20:50;17.13;;;3.78;;
51459;SDS011;37534;39.772;2.718;2022-10-17T04:23:16;3.90;;;2.22;;
51459;SDS011;37534;39.772;2.718;2022-10-17T04:25:42;3.47;;;2.58;;
51459;SDS011;37534;39.772;2.718;2022-10-17T04:28:07;16.13;;;3.97;;
51459;SDS011;37534;39.772;2.718;2022-10-17T04:30:33;7.00;;;2.85;;
51459;SDS011;37534;39.772;2.718;2022-10-17T04:32:58;4.53;;;3.30;;
51459;SDS011;37534;39.772;2.718;2022-10-17T04:35:24;8.50;;;3.00;;
51459;SDS011;37534;39.772;2.718;2022-10-17T04:37:50;11.63;;;2.90;;
51459;SDS011;37534;39.772;2.718;2022-10-17T04:40:15;11.05;;;3.95;;
51459;SDS011;37534;39.772;2.718;2022-10-17T04:42:41;7.90;;;3.15;;
51459;SDS011;37534;39.772;2.718;2022-10-17T04:45:07;8.60;;;3.30;;
51459;SDS011;37534;39.772;2.718;2022-10-17T04:47:33;13.63;;;3.38;;
51459;SDS011;37534;39.772;2.718;2022-10-17T04:49:58;6.55;;;3.40;;
51459;SDS011;37534;39.772;2.718;2022-10-17T04:52:24;6.53;;;2.72;;
51459;SDS011;37534;39.772;2.718;2022-10-17T04:54:49;2.92;;;2.55;;
51459;SDS011;37534;39.772;2.718;2022-10-17T04:57:15;11.32;;;2.95;;
51459;SDS011;37534;39.772;2.718;2022-10-17T04:59:41;8.85;;;3.40;;
51459;SDS011;37534;39.772;2.718;2022-10-17T05:02:07;9.13;;;3.20;;
51459;SDS011;37534;39.772;2.718;2022-10-17T05:04:32;13.88;;;4.05;;
51459;SDS011;37534;39.772;2.718;2022-10-17T05:06:58;9.45;;;3.78;;
51459;SDS011;37534;39.772;2.718;2022-10-17T05:09:23;9.60;;;3.70;;
51459;SDS011;37534;39.772;2.718;2022-10-17T05:11:49;7.38;;;2.95;;
51459;SDS011;37534;39.772;2.718;2022-10-17T05:14:14;5.28;;;3.67;;
51459;SDS011;37534;39.772;2.718;2022-10-17T05:16:40;10.25;;;3.72;;
51459;SDS011;37534;39.772;2.718;2022-10-17T05:19:05;6.15;;;3.40;;
51459;SDS011;37534;39.772;2.718;2022-10-17T05:21:31;12.43;;;4.35;;
51459;SDS011;37534;39.772;2.718;2022-10-17T05:23:57;6.30;;;3.60;;
51459;SDS011;37534;39.772;2.718;2022-10-17T05:26:23;5.82;;;3.50;;
51459;SDS011;37534;39.772;2.718;2022-10-17T05:28:49;7.15;;;3.38;;
51459;SDS011;37534;39.772;2.718;2022-10-17T05:31:16;6.35;;;3.13;;
51459;SDS011;37534;39.772;2.718;2022-10-17T05:33:42;4.53;;;3.33;;
51459;SDS011;37534;39.772;2.718;2022-10-17T05:36:07;9.90;;;3.97;;
51459;SDS011;37534;39.772;2.718;2022-10-17T05:38:33;6.60;;;4.07;;
51459;SDS011;37534;39.772;2.718;2022-10-17T05:41:00;6.97;;;4.18;;
51459;SDS011;37534;39.772;2.718;2022-10-17T05:43:28;6.35;;;3.80;;
51459;SDS011;37534;39.772;2.718;2022-10-17T05:45:54;10.73;;;4.13;;
51459;SDS011;37534;39.772;2.718;2022-10-17T05:48:20;4.90;;;3.90;;
51459;SDS011;37534;39.772;2.718;2022-10-17T05:50:46;7.60;;;4.43;;
51459;SDS011;37534;39.772;2.718;2022-10-17T05:53:12;17.98;;;4.72;;
51459;SDS011;37534;39.772;2.718;2022-10-17T05:55:38;8.40;;;5.03;;
51459;SDS011;37534;39.772;2.718;2022-10-17T05:58:04;12.40;;;4.05;;
51459;SDS011;37534;39.772;2.718;2022-10-17T06:00:29;5.32;;;4.78;;
51459;SDS011;37534;39.772;2.718;2022-10-17T06:02:55;39.13;;;28.23;;
51459;SDS011;37534;39.772;2.718;2022-10-17T06:05:21;19.33;;;14.85;;
51459;SDS011;37534;39.772;2.718;2022-10-17T06:07:46;30.15;;;18.63;;
51459;SDS011;37534;39.772;2.718;2022-10-17T06:10:17;23.80;;;13.05;;
51459;SDS011;37534;39.772;2.718;2022-10-17T06:12:43;12.85;;;9.10;;
51459;SDS011;37534;39.772;2.718;2022-10-17T06:15:09;13.65;;;6.72;;
51459;SDS011;37534;39.772;2.718;2022-10-17T06:17:35;17.15;;;5.95;;
51459;SDS011;37534;39.772;2.718;2022-10-17T06:20:02;9.90;;;4.05;;
51459;SDS011;37534;39.772;2.718;2022-10-17T06:22:28;19.40;;;11.52;;
51459;SDS011;37534;39.772;2.718;2022-10-17T06:24:53;137.07;;;106.65;;
51459;SDS011;37534;39.772;2.718;2022-10-17T06:27:19;46.75;;;34.35;;
51459;SDS011;37534;39.772;2.718;2022-10-17T06:29:45;27.73;;;19.88;;
51459;SDS011;37534;39.772;2.718;2022-10-17T06:32:11;22.77;;;16.98;;
51459;SDS011;37534;39.772;2.718;2022-10-17T06:34:37;37.28;;;24.75;;
51459;SDS011;37534;39.772;2.718;2022-10-17T06:37:03;21.83;;;12.18;;
51459;SDS011;37534;39.772;2.718;2022-10-17T06:39:28;25.58;;;10.85;;
51459;SDS011;37534;39.772;2.718;2022-10-17T06:41:58;15.27;;;9.25;;
51459;SDS011;37534;39.772;2.718;2022-10-17T06:44:25;14.32;;;9.00;;
51459;SDS011;37534;39.772;2.718;2022-10-17T06:46:54;16.15;;;11.25;;
51459;SDS011;37534;39.772;2.718;2022-10-17T06:49:20;35.92;;;12.43;;
51459;SDS011;37534;39.772;2.718;2022-10-17T06:51:46;26.67;;;15.80;;
51459;SDS011;37534;39.772;2.718;2022-10-17T06:54:11;23.35;;;16.33;;
51459;SDS011;37534;39.772;2.718;2022-10-17T06:56:37;48.08;;;29.25;;
51459;SDS011;37534;39.772;2.718;2022-10-17T06:59:02;38.67;;;27.90;;
51459;SDS011;37534;39.772;2.718;2022-10-17T07:01:29;39.28;;;25.42;;
51459;SDS011;37534;39.772;2.718;2022-10-17T07:03:55;45.97;;;28.42;;
51459;SDS011;37534;39.772;2.718;2022-10-17T07:06:20;35.00;;;22.98;;
51459;SDS011;37534;39.772;2.718;2022-10-17T07:08:48;40.63;;;22.17;;
51459;SDS011;37534;39.772;2.718;2022-10-17T07:11:15;38.90;;;22.30;;
51459;SDS011;37534;39.772;2.718;2022-10-17T07:13:42;29.45;;;21.77;;
51459;SDS011;37534;39.772;2.718;2022-10-17T07:16:08;37.35;;;24.52;;
51459;SDS011;37534;39.772;2.718;2022-10-17T07:18:34;36.08;;;25.27;;
51459;SDS011;37534;39.772;2.718;2022-10-17T07:21:00;42.13;;;25.42;;
51459;SDS011;37534;39.772;2.718;2022-10-17T07:23:26;51.55;;;33.05;;
51459;SDS011;37534;39.772;2.718;2022-10-17T07:25:52;50.20;;;36.65;;
51459;SDS011;37534;39.772;2.718;2022-10-17T07:28:17;58.08;;;33.15;;
51459;SDS011;37534;39.772;2.718;2022-10-17T07:30:43;46.55;;;34.20;;
51459;SDS011;37534;39.772;2.718;2022-10-17T07:33:09;43.30;;;32.47;;
51459;SDS011;37534;39.772;2.718;2022-10-17T07:35:36;37.63;;;28.92;;
51459;SDS011;37534;39.772;2.718;2022-10-17T07:38:05;52.83;;;34.95;;
51459;SDS011;37534;39.772;2.718;2022-10-17T07:40:30;53.50;;;38.35;;
51459;SDS011;37534;39.772;2.718;2022-10-17T07:42:56;68.47;;;45.38;;
51459;SDS011;37534;39.772;2.718;2022-10-17T07:45:22;64.32;;;43.15;;
51459;SDS011;37534;39.772;2.718;2022-10-17T07:47:48;66.90;;;45.25;;
51459;SDS011;37534;39.772;2.718;2022-10-17T07:50:18;75.28;;;52.42;;
51459;SDS011;37534;39.772;2.718;2022-10-17T07:52:44;55.35;;;41.45;;
51459;SDS011;37534;39.772;2.718;2022-10-17T07:55:11;59.25;;;40.05;;
51459;SDS011;37534;39.772;2.718;2022-10-17T07:57:36;61.17;;;39.92;;
51459;SDS011;37534;39.772;2.718;2022-10-17T08:00:02;48.78;;;36.28;;
51459;SDS011;37534;39.772;2.718;2022-10-17T08:02:28;61.92;;;39.53;;
51459;SDS011;37534;39.772;2.718;2022-10-17T08:04:53;56.05;;;38.13;;
51459;SDS011;37534;39.772;2.718;2022-10-17T08:07:19;59.80;;;41.83;;
51459;SDS011;37534;39.772;2.718;2022-10-17T08:09:45;62.67;;;42.05;;
51459;SDS011;37534;39.772;2.718;2022-10-17T08:12:11;63.60;;;38.55;;
51459;SDS011;37534;39.772;2.718;2022-10-17T08:14:41;52.53;;;36.10;;
51459;SDS011;37534;39.772;2.718;2022-10-17T08:17:07;53.13;;;34.45;;
51459;SDS011;37534;39.772;2.718;2022-10-17T08:19:33;57.70;;;37.25;;
51459;SDS011;37534;39.772;2.718;2022-10-17T08:22:03;53.10;;;35.85;;
51459;SDS011;37534;39.772;2.718;2022-10-17T08:24:28;53.47;;;34.78;;
51459;SDS011;37534;39.772;2.718;2022-10-17T08:26:54;38.83;;;30.85;;
51459;SDS011;37534;39.772;2.718;2022-10-17T08:29:21;47.42;;;34.47;;
51459;SDS011;37534;39.772;2.718;2022-10-17T08:31:46;53.33;;;32.00;;
51459;SDS011;37534;39.772;2.718;2022-10-17T08:34:12;42.13;;;30.05;;
51459;SDS011;37534;39.772;2.718;2022-10-17T08:36:37;44.92;;;27.00;;
51459;SDS011;37534;39.772;2.718;2022-10-17T08:39:03;45.60;;;25.25;;
51459;SDS011;37534;39.772;2.718;2022-10-17T08:41:51;38.88;;;20.25;;
51459;SDS011;37534;39.772;2.718;2022-10-17T08:47:13;22.92;;;11.43;;
51459;SDS011;37534;39.772;2.718;2022-10-17T08:49:49;24.10;;;9.30;;
51459;SDS011;37534;39.772;2.718;2022-10-17T08:52:26;18.13;;;10.27;;
51459;SDS011;37534;39.772;2.718;2022-10-17T08:54:54;14.07;;;8.15;;
51459;SDS011;37534;39.772;2.718;2022-10-17T08:57:20;11.45;;;6.78;;
51459;SDS011;37534;39.772;2.718;2022-10-17T08:59:48;18.30;;;9.50;;
51459;SDS011;37534;39.772;2.718;2022-10-17T09:07:24;13.90;;;6.97;;
51459;SDS011;37534;39.772;2.718;2022-10-17T09:10:14;10.60;;;6.25;;
51459;SDS011;37534;39.772;2.718;2022-10-17T09:20:41;14.10;;;7.93;;
51459;SDS011;37534;39.772;2.718;2022-10-17T09:23:14;11.40;;;6.28;;
51459;SDS011;37534;39.772;2.718;2022-10-17T09:25:43;14.68;;;7.78;;
51459;SDS011;37534;39.772;2.718;2022-10-17T09:28:24;11.52;;;8.00;;
51459;SDS011;37534;39.772;2.718;2022-10-17T09:30:55;14.90;;;6.32;;
51459;SDS011;37534;39.772;2.718;2022-10-17T09:33:26;14.98;;;6.50;;
51459;SDS011;37534;39.772;2.718;2022-10-17T09:35:55;14.73;;;7.72;;
51459;SDS011;37534;39.772;2.718;2022-10-17T09:38:24;20.50;;;7.63;;
51459;SDS011;37534;39.772;2.718;2022-10-17T09:40:56;23.20;;;8.50;;
51459;SDS011;37534;39.772;2.718;2022-10-17T09:43:24;17.65;;;7.15;;
51459;SDS011;37534;39.772;2.718;2022-10-17T09:45:57;14.00;;;8.73;;
51459;SDS011;37534;39.772;2.718;2022-10-17T09:48:44;25.60;;;10.40;;
51459;SDS011;37534;39.772;2.718;2022-10-17T09:51:15;12.77;;;6.05;;
51459;SDS011;37534;39.772;2.718;2022-10-17T09:53:45;17.42;;;4.50;;
51459;SDS011;37534;39.772;2.718;2022-10-17T09:56:17;12.07;;;4.13;;
51459;SDS011;37534;39.772;2.718;2022-10-17T09:58:45;8.98;;;3.97;;
51459;SDS011;37534;39.772;2.718;2022-10-17T10:01:23;6.43;;;3.70;;
51459;SDS011;37534;39.772;2.718;2022-10-17T10:06:39;5.47;;;3.17;;
51459;SDS011;37534;39.772;2.718;2022-10-17T10:09:06;8.77;;;5.15;;
51459;SDS011;37534;39.772;2.718;2022-10-17T10:11:46;13.90;;;4.35;;
51459;SDS011;37534;39.772;2.718;2022-10-17T10:14:30;10.52;;;5.50;;
51459;SDS011;37534;39.772;2.718;2022-10-17T10:16:59;11.85;;;5.43;;
51459;SDS011;37534;39.772;2.718;2022-10-17T10:19:30;16.40;;;10.25;;
51459;SDS011;37534;39.772;2.718;2022-10-17T10:21:57;17.05;;;9.32;;
51459;SDS011;37534;39.772;2.718;2022-10-17T10:24:27;8.57;;;4.72;;
51459;SDS011;37534;39.772;2.718;2022-10-17T10:26:55;9.75;;;3.38;;
51459;SDS011;37534;39.772;2.718;2022-10-17T10:32:19;10.32;;;4.40;;
51459;SDS011;37534;39.772;2.718;2022-10-17T10:37:44;10.02;;;4.50;;
51459;SDS011;37534;39.772;2.718;2022-10-17T10:42:51;12.73;;;5.20;;
51459;SDS011;37534;39.772;2.718;2022-10-17T10:45:19;9.05;;;3.88;;
51459;SDS011;37534;39.772;2.718;2022-10-17T10:47:58;9.48;;;3.67;;
51459;SDS011;37534;39.772;2.718;2022-10-17T10:55:44;6.32;;;2.92;;
51459;SDS011;37534;39.772;2.718;2022-10-17T11:06:36;13.32;;;3.33;;
51459;SDS011;37534;39.772;2.718;2022-10-17T11:11:38;14.63;;;5.30;;
51459;SDS011;37534;39.772;2.718;2022-10-17T11:14:13;10.18;;;4.75;;
51459;SDS011;37534;39.772;2.718;2022-10-17T11:16:49;10.43;;;3.60;;
51459;SDS011;37534;39.772;2.718;2022-10-17T11:22:18;7.13;;;2.25;;
51459;SDS011;37534;39.772;2.718;2022-10-17T11:24:52;10.13;;;3.22;;
51459;SDS011;37534;39.772;2.718;2022-10-17T11:27:25;9.50;;;3.97;;
51459;SDS011;37534;39.772;2.718;2022-10-17T11:29:53;10.70;;;4.32;;
51459;SDS011;37534;39.772;2.718;2022-10-17T11:32:21;8.48;;;3.72;;
51459;SDS011;37534;39.772;2.718;2022-10-17T11:34:50;10.90;;;3.40;;
51459;SDS011;37534;39.772;2.718;2022-10-17T11:37:24;7.00;;;3.42;;
51459;SDS011;37534;39.772;2.718;2022-10-17T11:45:13;6.13;;;3.53;;
51459;SDS011;37534;39.772;2.718;2022-10-17T11:47:49;13.80;;;3.97;;
51459;SDS011;37534;39.772;2.718;2022-10-17T11:53:21;8.10;;;2.70;;
51459;SDS011;37534;39.772;2.718;2022-10-17T11:55:49;6.70;;;3.38;;
51459;SDS011;37534;39.772;2.718;2022-10-17T12:11:57;7.65;;;3.42;;
51459;SDS011;37534;39.772;2.718;2022-10-17T12:14:41;19.65;;;3.35;;
51459;SDS011;37534;39.772;2.718;2022-10-17T12:19:46;9.50;;;2.88;;
51459;SDS011;37534;39.772;2.718;2022-10-17T12:22:20;8.02;;;3.10;;
51459;SDS011;37534;39.772;2.718;2022-10-17T12:24:57;3.58;;;2.45;;
51459;SDS011;37534;39.772;2.718;2022-10-17T12:32:46;7.32;;;3.55;;
51459;SDS011;37534;39.772;2.718;2022-10-17T12:35:27;8.40;;;2.38;;
51459;SDS011;37534;39.772;2.718;2022-10-17T12:43:31;4.72;;;2.65;;
51459;SDS011;37534;39.772;2.718;2022-10-17T12:50:59;6.22;;;2.90;;
51459;SDS011;37534;39.772;2.718;2022-10-17T12:56:12;12.43;;;3.60;;
51459;SDS011;37534;39.772;2.718;2022-10-17T12:58:42;13.38;;;4.07;;
51459;SDS011;37534;39.772;2.718;2022-10-17T13:01:20;10.95;;;3.22;;
51459;SDS011;37534;39.772;2.718;2022-10-17T13:03:51;9.60;;;2.80;;
51459;SDS011;37534;39.772;2.718;2022-10-17T13:06:19;6.90;;;2.92;;
51459;SDS011;37534;39.772;2.718;2022-10-17T13:11:24;5.60;;;2.88;;
51459;SDS011;37534;39.772;2.718;2022-10-17T13:13:52;4.82;;;2.65;;
51459;SDS011;37534;39.772;2.718;2022-10-17T13:19:19;3.65;;;2.42;;
51459;SDS011;37534;39.772;2.718;2022-10-17T13:24:25;12.98;;;2.97;;
51459;SDS011;37534;39.772;2.718;2022-10-17T13:26:54;7.55;;;2.92;;
51459;SDS011;37534;39.772;2.718;2022-10-17T13:29:20;7.68;;;3.00;;
51459;SDS011;37534;39.772;2.718;2022-10-17T13:31:54;16.40;;;3.13;;
51459;SDS011;37534;39.772;2.718;2022-10-17T13:34:24;5.32;;;2.40;;
51459;SDS011;37534;39.772;2.718;2022-10-17T13:37:00;8.27;;;4.13;;
51459;SDS011;37534;39.772;2.718;2022-10-17T13:39:35;15.20;;;5.80;;
51459;SDS011;37534;39.772;2.718;2022-10-17T13:42:03;12.90;;;8.00;;
51459;SDS011;37534;39.772;2.718;2022-10-17T13:44:33;10.75;;;5.32;;
51459;SDS011;37534;39.772;2.718;2022-10-17T13:46:59;10.70;;;5.95;;
51459;SDS011;37534;39.772;2.718;2022-10-17T13:49:32;16.23;;;6.43;;
51459;SDS011;37534;39.772;2.718;2022-10-17T13:52:01;14.18;;;5.05;;
51459;SDS011;37534;39.772;2.718;2022-10-17T13:56:59;8.43;;;4.03;;
51459;SDS011;37534;39.772;2.718;2022-10-17T13:59:44;12.75;;;6.78;;
51459;SDS011;37534;39.772;2.718;2022-10-17T14:02:15;14.18;;;3.72;;
51459;SDS011;37534;39.772;2.718;2022-10-17T14:04:48;3.38;;;2.22;;
51459;SDS011;37534;39.772;2.718;2022-10-17T14:12:49;8.40;;;4.10;;
51459;SDS011;37534;39.772;2.718;2022-10-17T14:15:16;6.35;;;3.08;;
51459;SDS011;37534;39.772;2.718;2022-10-17T14:17:43;8.35;;;2.75;;
51459;SDS011;37534;39.772;2.718;2022-10-17T14:20:19;15.32;;;3.65;;
51459;SDS011;37534;39.772;2.718;2022-10-17T14:22:47;3.58;;;2.38;;
51459;SDS011;37534;39.772;2.718;2022-10-17T14:30:38;11.80;;;3.92;;
51459;SDS011;37534;39.772;2.718;2022-10-17T14:33:18;15.73;;;4.35;;
51459;SDS011;37534;39.772;2.718;2022-10-17T14:35:51;9.50;;;4.57;;
51459;SDS011;37534;39.772;2.718;2022-10-17T14:38:18;7.05;;;3.65;;
51459;SDS011;37534;39.772;2.718;2022-10-17T14:43:55;6.63;;;4.35;;
51459;SDS011;37534;39.772;2.718;2022-10-17T14:46:23;11.23;;;3.80;;
51459;SDS011;37534;39.772;2.718;2022-10-17T14:48:54;7.97;;;4.10;;
51459;SDS011;37534;39.772;2.718;2022-10-17T14:51:22;19.92;;;10.07;;
51459;SDS011;37534;39.772;2.718;2022-10-17T14:57:07;11.95;;;6.35;;
51459;SDS011;37534;39.772;2.718;2022-10-17T14:59:20;21.80;;;7.45;;
51459;SDS011;37534;39.772;2.718;2022-10-17T15:01:50;11.88;;;3.05;;
51459;SDS011;37534;39.772;2.718;2022-10-17T15:04:16;6.22;;;3.05;;
51459;SDS011;37534;39.772;2.718;2022-10-17T15:06:42;3.83;;;2.28;;
51459;SDS011;37534;39.772;2.718;2022-10-17T15:09:08;7.63;;;3.35;;
51459;SDS011;37534;39.772;2.718;2022-10-17T15:11:35;13.23;;;3.08;;
51459;SDS011;37534;39.772;2.718;2022-10-17T15:14:01;8.18;;;3.15;;
51459;SDS011;37534;39.772;2.718;2022-10-17T15:16:29;9.40;;;2.72;;
51459;SDS011;37534;39.772;2.718;2022-10-17T15:18:56;9.88;;;3.22;;
51459;SDS011;37534;39.772;2.718;2022-10-17T15:21:22;7.60;;;3.72;;
51459;SDS011;37534;39.772;2.718;2022-10-17T15:23:49;6.43;;;2.58;;
51459;SDS011;37534;39.772;2.718;2022-10-17T15:26:19;8.13;;;4.15;;
51459;SDS011;37534;39.772;2.718;2022-10-17T15:28:53;11.13;;;4.35;;
51459;SDS011;37534;39.772;2.718;2022-10-17T15:31:20;7.82;;;4.05;;
51459;SDS011;37534;39.772;2.718;2022-10-17T15:33:47;22.58;;;5.93;;
51459;SDS011;37534;39.772;2.718;2022-10-17T15:38:48;13.07;;;4.28;;
51459;SDS011;37534;39.772;2.718;2022-10-17T15:41:16;17.52;;;3.10;;
51459;SDS011;37534;39.772;2.718;2022-10-17T15:43:42;6.65;;;2.78;;
51459;SDS011;37534;39.772;2.718;2022-10-17T15:46:10;9.48;;;3.65;;
51459;SDS011;37534;39.772;2.718;2022-10-17T15:48:38;5.50;;;2.43;;
51459;SDS011;37534;39.772;2.718;2022-10-17T15:51:03;6.30;;;2.42;;
51459;SDS011;37534;39.772;2.718;2022-10-17T15:53:29;7.97;;;2.97;;
51459;SDS011;37534;39.772;2.718;2022-10-17T15:55:54;6.70;;;2.80;;
51459;SDS011;37534;39.772;2.718;2022-10-17T15:58:20;4.65;;;2.45;;
51459;SDS011;37534;39.772;2.718;2022-10-17T16:00:46;11.30;;;3.10;;
51459;SDS011;37534;39.772;2.718;2022-10-17T16:03:12;7.38;;;2.95;;
51459;SDS011;37534;39.772;2.718;2022-10-17T16:05:38;12.60;;;3.33;;
51459;SDS011;37534;39.772;2.718;2022-10-17T16:08:04;10.30;;;3.42;;
51459;SDS011;37534;39.772;2.718;2022-10-17T16:10:29;6.18;;;2.92;;
51459;SDS011;37534;39.772;2.718;2022-10-17T16:12:55;10.05;;;3.40;;
51459;SDS011;37534;39.772;2.718;2022-10-17T16:15:21;8.48;;;3.75;;
51459;SDS011;37534;39.772;2.718;2022-10-17T16:17:49;8.70;;;2.90;;
51459;SDS011;37534;39.772;2.718;2022-10-17T16:20:20;8.10;;;3.10;;
51459;SDS011;37534;39.772;2.718;2022-10-17T16:22:46;6.40;;;2.58;;
51459;SDS011;37534;39.772;2.718;2022-10-17T16:25:17;8.02;;;3.28;;
51459;SDS011;37534;39.772;2.718;2022-10-17T16:27:45;7.38;;;2.92;;
51459;SDS011;37534;39.772;2.718;2022-10-17T16:30:12;7.40;;;3.47;;
51459;SDS011;37534;39.772;2.718;2022-10-17T16:32:38;8.30;;;3.20;;
51459;SDS011;37534;39.772;2.718;2022-10-17T16:35:04;5.85;;;3.22;;
51459;SDS011;37534;39.772;2.718;2022-10-17T16:37:33;9.05;;;3.60;;
51459;SDS011;37534;39.772;2.718;2022-10-17T16:40:00;11.27;;;2.97;;
51459;SDS011;37534;39.772;2.718;2022-10-17T16:42:25;22.92;;;8.32;;
51459;SDS011;37534;39.772;2.718;2022-10-17T16:44:51;21.17;;;11.32;;
51459;SDS011;37534;39.772;2.718;2022-10-17T16:47:17;18.42;;;11.52;;
51459;SDS011;37534;39.772;2.718;2022-10-17T16:49:43;23.55;;;10.45;;
51459;SDS011;37534;39.772;2.718;2022-10-17T16:52:08;15.35;;;8.77;;
51459;SDS011;37534;39.772;2.718;2022-10-17T16:54:34;11.95;;;7.15;;
51459;SDS011;37534;39.772;2.718;2022-10-17T16:57:00;15.25;;;7.72;;
51459;SDS011;37534;39.772;2.718;2022-10-17T16:59:26;38.00;;;16.13;;
51459;SDS011;37534;39.772;2.718;2022-10-17T17:01:52;26.13;;;17.23;;
51459;SDS011;37534;39.772;2.718;2022-10-17T17:04:18;17.88;;;8.75;;
51459;SDS011;37534;39.772;2.718;2022-10-17T17:06:44;22.90;;;9.80;;
51459;SDS011;37534;39.772;2.718;2022-10-17T17:09:10;18.88;;;7.85;;
51459;SDS011;37534;39.772;2.718;2022-10-17T17:11:35;18.63;;;9.23;;
51459;SDS011;37534;39.772;2.718;2022-10-17T17:14:01;19.25;;;8.20;;
51459;SDS011;37534;39.772;2.718;2022-10-17T17:16:28;12.43;;;6.78;;
51459;SDS011;37534;39.772;2.718;2022-10-17T17:19:05;14.57;;;8.25;;
51459;SDS011;37534;39.772;2.718;2022-10-17T17:21:34;17.00;;;8.80;;
51459;SDS011;37534;39.772;2.718;2022-10-17T17:24:00;17.60;;;9.25;;
51459;SDS011;37534;39.772;2.718;2022-10-17T17:26:29;18.45;;;8.65;;
51459;SDS011;37534;39.772;2.718;2022-10-17T17:28:57;13.32;;;10.52;;
51459;SDS011;37534;39.772;2.718;2022-10-17T17:31:25;52.20;;;29.55;;
51459;SDS011;37534;39.772;2.718;2022-10-17T17:33:52;23.75;;;13.45;;